sensor_id;sensor_type;location;lat;lon;timestamp;P1;durP1;ratioP1;P2;durP2;ratioP2
5878;SDS011;2965;42.640;23.370;2022-10-23T04:02:01;27.73;;;15.00;;
5878;SDS011;2965;42.640;23.370;2022-10-23T04:04:26;25.10;;;14.13;;
5878;SDS011;2965;42.640;23.370;2022-10-23T04:06:51;27.03;;;14.43;;
5878;SDS011;2965;42.640;23.370;2022-10-23T04:09:17;24.17;;;13.60;;
5878;SDS011;2965;42.640;23.370;2022-10-23T04:11:42;20.30;;;10.70;;
5878;SDS011;2965;42.640;23.370;2022-10-23T04:14:09;25.23;;;11.43;;
5878;SDS011;2965;42.640;23.370;2022-10-23T04:16:36;17.80;;;11.00;;
5878;SDS011;2965;42.640;23.370;2022-10-23T04:19:01;28.00;;;10.73;;
5878;SDS011;2965;42.640;23.370;2022-10-23T04:21:27;19.80;;;9.40;;
5878;SDS011;2965;42.640;23.370;2022-10-23T04:23:52;19.57;;;9.27;;
5878;SDS011;2965;42.640;23.370;2022-10-23T04:26:18;14.17;;;9.87;;
5878;SDS011;2965;42.640;23.370;2022-10-23T04:28:43;14.40;;;7.10;;
5878;SDS011;2965;42.640;23.370;2022-10-23T04:31:08;12.23;;;8.10;;
5878;SDS011;2965;42.640;23.370;2022-10-23T04:33:34;20.23;;;8.47;;
5878;SDS011;2965;42.640;23.370;2022-10-23T04:35:59;11.97;;;8.47;;
5878;SDS011;2965;42.640;23.370;2022-10-23T04:38:24;17.83;;;8.63;;
5878;SDS011;2965;42.640;23.370;2022-10-23T04:40:50;15.30;;;7.97;;
5878;SDS011;2965;42.640;23.370;2022-10-23T04:43:16;14.17;;;7.90;;
5878;SDS011;2965;42.640;23.370;2022-10-23T04:45:41;16.83;;;7.90;;
5878;SDS011;2965;42.640;23.370;2022-10-23T04:48:06;21.83;;;9.03;;
5878;SDS011;2965;42.640;23.370;2022-10-23T04:50:32;12.77;;;8.57;;
5878;SDS011;2965;42.640;23.370;2022-10-23T04:52:57;11.20;;;8.43;;
5878;SDS011;2965;42.640;23.370;2022-10-23T04:55:23;15.00;;;9.03;;
5878;SDS011;2965;42.640;23.370;2022-10-23T04:57:49;11.93;;;9.17;;
5878;SDS011;2965;42.640;23.370;2022-10-23T05:00:16;17.80;;;9.43;;
5878;SDS011;2965;42.640;23.370;2022-10-23T05:02:41;17.73;;;9.33;;
5878;SDS011;2965;42.640;23.370;2022-10-23T05:05:07;21.97;;;9.33;;
5878;SDS011;2965;42.640;23.370;2022-10-23T05:07:33;20.97;;;9.67;;
5878;SDS011;2965;42.640;23.370;2022-10-23T05:09:59;19.47;;;8.77;;
5878;SDS011;2965;42.640;23.370;2022-10-23T05:12:25;14.30;;;9.63;;
5878;SDS011;2965;42.640;23.370;2022-10-23T05:14:51;12.57;;;9.00;;
5878;SDS011;2965;42.640;23.370;2022-10-23T05:17:27;14.27;;;9.63;;
5878;SDS011;2965;42.640;23.370;2022-10-23T05:22:36;15.10;;;8.50;;
5878;SDS011;2965;42.640;23.370;2022-10-23T05:25:03;25.27;;;9.43;;
5878;SDS011;2965;42.640;23.370;2022-10-23T05:27:29;16.20;;;10.07;;
5878;SDS011;2965;42.640;23.370;2022-10-23T05:29:55;16.43;;;10.10;;
5878;SDS011;2965;42.640;23.370;2022-10-23T05:32:20;16.20;;;9.83;;
5878;SDS011;2965;42.640;23.370;2022-10-23T05:34:48;21.10;;;9.80;;
5878;SDS011;2965;42.640;23.370;2022-10-23T05:37:13;16.43;;;9.70;;
5878;SDS011;2965;42.640;23.370;2022-10-23T05:39:40;11.13;;;8.73;;
5878;SDS011;2965;42.640;23.370;2022-10-23T05:42:05;10.47;;;8.50;;
5878;SDS011;2965;42.640;23.370;2022-10-23T05:44:31;15.93;;;9.83;;
5878;SDS011;2965;42.640;23.370;2022-10-23T05:46:56;22.83;;;9.00;;
5878;SDS011;2965;42.640;23.370;2022-10-23T05:49:24;13.90;;;9.37;;
5878;SDS011;2965;42.640;23.370;2022-10-23T05:51:50;14.70;;;9.40;;
5878;SDS011;2965;42.640;23.370;2022-10-23T05:54:16;24.90;;;8.83;;
5878;SDS011;2965;42.640;23.370;2022-10-23T05:56:41;17.50;;;9.23;;
5878;SDS011;2965;42.640;23.370;2022-10-23T05:59:07;15.53;;;8.63;;
5878;SDS011;2965;42.640;23.370;2022-10-23T06:01:34;18.07;;;8.57;;
5878;SDS011;2965;42.640;23.370;2022-10-23T06:04:00;16.90;;;9.27;;
5878;SDS011;2965;42.640;23.370;2022-10-23T06:06:26;12.13;;;8.83;;
5878;SDS011;2965;42.640;23.370;2022-10-23T06:08:51;14.27;;;8.90;;
5878;SDS011;2965;42.640;23.370;2022-10-23T06:11:17;17.13;;;9.30;;
5878;SDS011;2965;42.640;23.370;2022-10-23T06:13:42;13.73;;;9.27;;
5878;SDS011;2965;42.640;23.370;2022-10-23T06:16:09;15.70;;;9.40;;
5878;SDS011;2965;42.640;23.370;2022-10-23T06:18:37;17.23;;;10.73;;
5878;SDS011;2965;42.640;23.370;2022-10-23T06:21:03;17.20;;;11.30;;
5878;SDS011;2965;42.640;23.370;2022-10-23T06:23:29;11.13;;;9.73;;
5878;SDS011;2965;42.640;23.370;2022-10-23T06:25:58;15.77;;;10.50;;
5878;SDS011;2965;42.640;23.370;2022-10-23T06:28:24;12.80;;;9.47;;
5878;SDS011;2965;42.640;23.370;2022-10-23T06:30:49;9.53;;;8.53;;
5878;SDS011;2965;42.640;23.370;2022-10-23T06:33:15;10.47;;;6.87;;
5878;SDS011;2965;42.640;23.370;2022-10-23T06:35:40;10.27;;;8.07;;
5878;SDS011;2965;42.640;23.370;2022-10-23T06:38:06;14.40;;;7.67;;
5878;SDS011;2965;42.640;23.370;2022-10-23T06:40:33;14.53;;;7.83;;
5878;SDS011;2965;42.640;23.370;2022-10-23T06:42:58;7.60;;;5.27;;
5878;SDS011;2965;42.640;23.370;2022-10-23T06:45:24;8.70;;;6.60;;
5878;SDS011;2965;42.640;23.370;2022-10-23T06:47:49;11.10;;;6.90;;
5878;SDS011;2965;42.640;23.370;2022-10-23T06:50:15;9.90;;;8.03;;
5878;SDS011;2965;42.640;23.370;2022-10-23T06:52:41;8.53;;;7.20;;
5878;SDS011;2965;42.640;23.370;2022-10-23T06:55:06;21.27;;;6.43;;
5878;SDS011;2965;42.640;23.370;2022-10-23T06:57:32;7.13;;;6.20;;
5878;SDS011;2965;42.640;23.370;2022-10-23T06:59:58;22.60;;;8.07;;
5878;SDS011;2965;42.640;23.370;2022-10-23T07:02:23;19.17;;;6.73;;
5878;SDS011;2965;42.640;23.370;2022-10-23T07:04:48;11.40;;;7.97;;
5878;SDS011;2965;42.640;23.370;2022-10-23T07:07:14;6.57;;;5.87;;
5878;SDS011;2965;42.640;23.370;2022-10-23T07:09:39;20.43;;;7.27;;
5878;SDS011;2965;42.640;23.370;2022-10-23T07:12:05;9.07;;;6.73;;
5878;SDS011;2965;42.640;23.370;2022-10-23T07:14:30;14.40;;;6.47;;
5878;SDS011;2965;42.640;23.370;2022-10-23T07:16:56;12.60;;;8.17;;
5878;SDS011;2965;42.640;23.370;2022-10-23T07:19:22;7.57;;;6.87;;
5878;SDS011;2965;42.640;23.370;2022-10-23T07:21:47;7.57;;;6.60;;
5878;SDS011;2965;42.640;23.370;2022-10-23T07:24:14;13.47;;;7.70;;
5878;SDS011;2965;42.640;23.370;2022-10-23T07:26:39;10.50;;;6.80;;
5878;SDS011;2965;42.640;23.370;2022-10-23T07:29:05;12.30;;;6.90;;
5878;SDS011;2965;42.640;23.370;2022-10-23T07:31:31;23.20;;;7.00;;
5878;SDS011;2965;42.640;23.370;2022-10-23T07:33:57;8.20;;;7.27;;
5878;SDS011;2965;42.640;23.370;2022-10-23T07:36:22;6.80;;;6.17;;
5878;SDS011;2965;42.640;23.370;2022-10-23T07:38:48;9.27;;;6.93;;
5878;SDS011;2965;42.640;23.370;2022-10-23T07:41:15;11.53;;;7.60;;
5878;SDS011;2965;42.640;23.370;2022-10-23T07:43:41;8.77;;;6.83;;
5878;SDS011;2965;42.640;23.370;2022-10-23T07:46:06;7.30;;;6.60;;
5878;SDS011;2965;42.640;23.370;2022-10-23T07:48:35;7.50;;;7.10;;
5878;SDS011;2965;42.640;23.370;2022-10-23T07:51:04;10.47;;;7.57;;
5878;SDS011;2965;42.640;23.370;2022-10-23T07:53:32;16.10;;;7.30;;
5878;SDS011;2965;42.640;23.370;2022-10-23T07:56:02;9.13;;;6.20;;
5878;SDS011;2965;42.640;23.370;2022-10-23T07:58:34;9.47;;;6.17;;
5878;SDS011;2965;42.640;23.370;2022-10-23T08:01:00;9.93;;;6.00;;
5878;SDS011;2965;42.640;23.370;2022-10-23T08:03:27;6.10;;;5.43;;
5878;SDS011;2965;42.640;23.370;2022-10-23T08:05:55;14.50;;;4.73;;
5878;SDS011;2965;42.640;23.370;2022-10-23T08:08:23;5.27;;;4.90;;
5878;SDS011;2965;42.640;23.370;2022-10-23T08:41:42;5.33;;;4.80;;
5878;SDS011;2965;42.640;23.370;2022-10-23T08:44:23;7.23;;;5.90;;
5878;SDS011;2965;42.640;23.370;2022-10-23T08:49:54;7.20;;;5.60;;
5878;SDS011;2965;42.640;23.370;2022-10-23T08:57:52;6.63;;;5.87;;
5878;SDS011;2965;42.640;23.370;2022-10-23T09:00:24;7.63;;;6.30;;
5878;SDS011;2965;42.640;23.370;2022-10-23T09:02:51;6.20;;;5.60;;
5878;SDS011;2965;42.640;23.370;2022-10-23T09:16:15;5.40;;;5.00;;
5878;SDS011;2965;42.640;23.370;2022-10-23T09:18:45;6.70;;;3.90;;
5878;SDS011;2965;42.640;23.370;2022-10-23T09:21:12;5.90;;;5.40;;
5878;SDS011;2965;42.640;23.370;2022-10-23T09:23:38;5.90;;;4.93;;
5878;SDS011;2965;42.640;23.370;2022-10-23T09:26:13;12.63;;;5.50;;
5878;SDS011;2965;42.640;23.370;2022-10-23T09:28:45;5.60;;;4.97;;
5878;SDS011;2965;42.640;23.370;2022-10-23T09:31:11;5.37;;;4.87;;
5878;SDS011;2965;42.640;23.370;2022-10-23T09:33:38;3.83;;;3.63;;
5878;SDS011;2965;42.640;23.370;2022-10-23T09:36:05;4.80;;;4.60;;
5878;SDS011;2965;42.640;23.370;2022-10-23T09:40:59;3.97;;;3.77;;
5878;SDS011;2965;42.640;23.370;2022-10-23T09:43:37;4.60;;;4.40;;
5878;SDS011;2965;42.640;23.370;2022-10-23T09:46:04;3.77;;;3.47;;
5878;SDS011;2965;42.640;23.370;2022-10-23T09:48:31;4.43;;;4.10;;
5878;SDS011;2965;42.640;23.370;2022-10-23T09:50:59;4.77;;;4.37;;
5878;SDS011;2965;42.640;23.370;2022-10-23T09:56:04;3.70;;;3.40;;
5878;SDS011;2965;42.640;23.370;2022-10-23T09:58:38;4.80;;;4.30;;
5878;SDS011;2965;42.640;23.370;2022-10-23T10:01:19;4.20;;;3.90;;
5878;SDS011;2965;42.640;23.370;2022-10-23T10:03:47;3.47;;;3.37;;
5878;SDS011;2965;42.640;23.370;2022-10-23T10:06:27;5.80;;;4.73;;
5878;SDS011;2965;42.640;23.370;2022-10-23T10:08:59;6.67;;;3.37;;
5878;SDS011;2965;42.640;23.370;2022-10-23T10:24:50;4.97;;;3.87;;
5878;SDS011;2965;42.640;23.370;2022-10-23T10:30:09;2.70;;;2.60;;
5878;SDS011;2965;42.640;23.370;2022-10-23T10:32:51;2.70;;;2.60;;
5878;SDS011;2965;42.640;23.370;2022-10-23T10:46:20;2.67;;;2.57;;
5878;SDS011;2965;42.640;23.370;2022-10-23T10:56:59;3.40;;;3.10;;
5878;SDS011;2965;42.640;23.370;2022-10-23T10:59:28;4.27;;;2.70;;
5878;SDS011;2965;42.640;23.370;2022-10-23T11:04:53;2.80;;;2.70;;
5878;SDS011;2965;42.640;23.370;2022-10-23T11:07:28;4.27;;;3.00;;
5878;SDS011;2965;42.640;23.370;2022-10-23T11:10:02;3.00;;;2.87;;
5878;SDS011;2965;42.640;23.370;2022-10-23T11:12:29;3.80;;;3.00;;
5878;SDS011;2965;42.640;23.370;2022-10-23T11:14:54;3.03;;;2.83;;
5878;SDS011;2965;42.640;23.370;2022-10-23T11:17:29;2.53;;;2.43;;
5878;SDS011;2965;42.640;23.370;2022-10-23T11:38:29;2.90;;;2.80;;
5878;SDS011;2965;42.640;23.370;2022-10-23T11:40:59;3.80;;;3.60;;
5878;SDS011;2965;42.640;23.370;2022-10-23T11:45:57;2.87;;;2.77;;
5878;SDS011;2965;42.640;23.370;2022-10-23T11:48:44;3.37;;;3.27;;
5878;SDS011;2965;42.640;23.370;2022-10-23T11:56:38;3.23;;;3.03;;
5878;SDS011;2965;42.640;23.370;2022-10-23T11:59:27;2.97;;;2.67;;
5878;SDS011;2965;42.640;23.370;2022-10-23T12:01:55;3.80;;;3.50;;
5878;SDS011;2965;42.640;23.370;2022-10-23T12:04:25;2.40;;;2.30;;
5878;SDS011;2965;42.640;23.370;2022-10-23T12:10:02;2.97;;;2.87;;
5878;SDS011;2965;42.640;23.370;2022-10-23T12:12:34;3.03;;;2.93;;
5878;SDS011;2965;42.640;23.370;2022-10-23T12:15:16;3.07;;;2.77;;
5878;SDS011;2965;42.640;23.370;2022-10-23T12:17:46;3.37;;;3.17;;
5878;SDS011;2965;42.640;23.370;2022-10-23T12:27:42;3.37;;;3.27;;
5878;SDS011;2965;42.640;23.370;2022-10-23T12:30:18;3.43;;;3.33;;
5878;SDS011;2965;42.640;23.370;2022-10-23T12:32:59;2.87;;;2.77;;
5878;SDS011;2965;42.640;23.370;2022-10-23T12:38:25;2.70;;;2.53;;
5878;SDS011;2965;42.640;23.370;2022-10-23T12:41:03;3.33;;;2.53;;
5878;SDS011;2965;42.640;23.370;2022-10-23T12:43:35;2.70;;;2.50;;
5878;SDS011;2965;42.640;23.370;2022-10-23T12:48:55;3.10;;;3.00;;
5878;SDS011;2965;42.640;23.370;2022-10-23T12:51:31;3.47;;;2.50;;
5878;SDS011;2965;42.640;23.370;2022-10-23T12:53:58;2.60;;;2.40;;
5878;SDS011;2965;42.640;23.370;2022-10-23T12:56:24;2.60;;;2.50;;
5878;SDS011;2965;42.640;23.370;2022-10-23T12:58:51;2.10;;;2.00;;
5878;SDS011;2965;42.640;23.370;2022-10-23T13:01:30;2.40;;;2.30;;
5878;SDS011;2965;42.640;23.370;2022-10-23T13:04:42;2.30;;;2.20;;
5878;SDS011;2965;42.640;23.370;2022-10-23T13:06:59;2.20;;;2.10;;
5878;SDS011;2965;42.640;23.370;2022-10-23T13:09:31;2.80;;;2.60;;
5878;SDS011;2965;42.640;23.370;2022-10-23T13:11:59;2.50;;;2.40;;
5878;SDS011;2965;42.640;23.370;2022-10-23T13:14:28;2.50;;;2.40;;
5878;SDS011;2965;42.640;23.370;2022-10-23T13:17:08;2.73;;;2.10;;
5878;SDS011;2965;42.640;23.370;2022-10-23T13:19:35;2.50;;;2.30;;
5878;SDS011;2965;42.640;23.370;2022-10-23T13:22:14;2.20;;;2.10;;
5878;SDS011;2965;42.640;23.370;2022-10-23T13:24:42;2.60;;;2.50;;
5878;SDS011;2965;42.640;23.370;2022-10-23T13:29:59;2.70;;;2.03;;
5878;SDS011;2965;42.640;23.370;2022-10-23T13:32:25;2.27;;;2.17;;
5878;SDS011;2965;42.640;23.370;2022-10-23T13:34:53;2.00;;;1.90;;
5878;SDS011;2965;42.640;23.370;2022-10-23T13:37:29;2.20;;;2.10;;
5878;SDS011;2965;42.640;23.370;2022-10-23T13:40:01;2.67;;;1.93;;
5878;SDS011;2965;42.640;23.370;2022-10-23T13:42:29;8.30;;;2.60;;
5878;SDS011;2965;42.640;23.370;2022-10-23T13:44:54;1.90;;;1.80;;
5878;SDS011;2965;42.640;23.370;2022-10-23T13:47:20;2.40;;;2.20;;
5878;SDS011;2965;42.640;23.370;2022-10-23T13:49:46;2.10;;;2.00;;
5878;SDS011;2965;42.640;23.370;2022-10-23T13:52:12;1.87;;;1.77;;
5878;SDS011;2965;42.640;23.370;2022-10-23T13:54:46;2.20;;;2.10;;
5878;SDS011;2965;42.640;23.370;2022-10-23T13:57:12;2.30;;;2.20;;
5878;SDS011;2965;42.640;23.370;2022-10-23T13:59:38;2.33;;;2.23;;
5878;SDS011;2965;42.640;23.370;2022-10-23T14:02:11;4.70;;;3.00;;
5878;SDS011;2965;42.640;23.370;2022-10-23T14:04:41;2.03;;;1.93;;
5878;SDS011;2965;42.640;23.370;2022-10-23T14:07:07;2.83;;;2.63;;
5878;SDS011;2965;42.640;23.370;2022-10-23T14:09:32;2.23;;;2.13;;
5878;SDS011;2965;42.640;23.370;2022-10-23T14:11:57;2.10;;;2.00;;
5878;SDS011;2965;42.640;23.370;2022-10-23T14:14:23;2.10;;;2.00;;
5878;SDS011;2965;42.640;23.370;2022-10-23T14:16:48;2.67;;;2.20;;
5878;SDS011;2965;42.640;23.370;2022-10-23T14:19:13;2.00;;;1.80;;
5878;SDS011;2965;42.640;23.370;2022-10-23T14:21:39;2.17;;;2.07;;
5878;SDS011;2965;42.640;23.370;2022-10-23T14:24:04;2.80;;;2.70;;
5878;SDS011;2965;42.640;23.370;2022-10-23T14:26:30;2.47;;;2.37;;
5878;SDS011;2965;42.640;23.370;2022-10-23T14:28:57;2.23;;;2.13;;
5878;SDS011;2965;42.640;23.370;2022-10-23T14:31:22;4.50;;;2.00;;
5878;SDS011;2965;42.640;23.370;2022-10-23T14:33:53;9.60;;;3.10;;
5878;SDS011;2965;42.640;23.370;2022-10-23T14:36:20;5.83;;;2.23;;
5878;SDS011;2965;42.640;23.370;2022-10-23T14:38:46;2.53;;;2.43;;
5878;SDS011;2965;42.640;23.370;2022-10-23T14:41:12;2.20;;;2.00;;
5878;SDS011;2965;42.640;23.370;2022-10-23T14:43:39;5.10;;;2.20;;
5878;SDS011;2965;42.640;23.370;2022-10-23T14:46:14;3.40;;;2.83;;
5878;SDS011;2965;42.640;23.370;2022-10-23T14:48:41;2.40;;;2.30;;
5878;SDS011;2965;42.640;23.370;2022-10-23T14:51:14;2.27;;;2.17;;
5878;SDS011;2965;42.640;23.370;2022-10-23T14:53:42;2.53;;;2.33;;
5878;SDS011;2965;42.640;23.370;2022-10-23T14:56:08;16.50;;;4.37;;
5878;SDS011;2965;42.640;23.370;2022-10-23T14:58:33;7.63;;;3.10;;
5878;SDS011;2965;42.640;23.370;2022-10-23T15:00:59;2.60;;;2.40;;
5878;SDS011;2965;42.640;23.370;2022-10-23T15:03:25;4.83;;;3.17;;
5878;SDS011;2965;42.640;23.370;2022-10-23T15:05:52;2.93;;;2.63;;
5878;SDS011;2965;42.640;23.370;2022-10-23T15:08:17;3.03;;;2.73;;
5878;SDS011;2965;42.640;23.370;2022-10-23T15:10:42;3.03;;;2.53;;
5878;SDS011;2965;42.640;23.370;2022-10-23T15:23:01;6.63;;;3.10;;
5878;SDS011;2965;42.640;23.370;2022-10-23T15:25:28;3.97;;;3.77;;
5878;SDS011;2965;42.640;23.370;2022-10-23T15:27:53;3.40;;;3.20;;
5878;SDS011;2965;42.640;23.370;2022-10-23T15:30:18;4.80;;;3.77;;
5878;SDS011;2965;42.640;23.370;2022-10-23T15:32:44;3.90;;;3.60;;
5878;SDS011;2965;42.640;23.370;2022-10-23T15:35:09;3.73;;;3.20;;
5878;SDS011;2965;42.640;23.370;2022-10-23T15:37:35;3.17;;;2.87;;
5878;SDS011;2965;42.640;23.370;2022-10-23T15:40:00;3.70;;;3.23;;
5878;SDS011;2965;42.640;23.370;2022-10-23T15:42:25;8.33;;;3.20;;
5878;SDS011;2965;42.640;23.370;2022-10-23T15:44:51;3.37;;;3.17;;
5878;SDS011;2965;42.640;23.370;2022-10-23T15:47:16;4.13;;;3.10;;
5878;SDS011;2965;42.640;23.370;2022-10-23T15:49:42;3.77;;;3.40;;
5878;SDS011;2965;42.640;23.370;2022-10-23T15:52:08;3.70;;;3.43;;
5878;SDS011;2965;42.640;23.370;2022-10-23T15:54:34;5.73;;;3.60;;
5878;SDS011;2965;42.640;23.370;2022-10-23T15:57:00;8.90;;;4.03;;
5878;SDS011;2965;42.640;23.370;2022-10-23T15:59:26;6.80;;;4.37;;
5878;SDS011;2965;42.640;23.370;2022-10-23T16:01:53;3.70;;;3.50;;
5878;SDS011;2965;42.640;23.370;2022-10-23T16:04:19;4.10;;;3.70;;
5878;SDS011;2965;42.640;23.370;2022-10-23T16:06:45;4.73;;;3.17;;
5878;SDS011;2965;42.640;23.370;2022-10-23T16:09:11;3.90;;;3.60;;
5878;SDS011;2965;42.640;23.370;2022-10-23T16:11:37;4.90;;;4.07;;
5878;SDS011;2965;42.640;23.370;2022-10-23T16:14:04;4.57;;;3.73;;
5878;SDS011;2965;42.640;23.370;2022-10-23T16:16:30;5.97;;;5.47;;
5878;SDS011;2965;42.640;23.370;2022-10-23T16:19:00;6.53;;;5.93;;
5878;SDS011;2965;42.640;23.370;2022-10-23T16:21:27;7.50;;;5.43;;
5878;SDS011;2965;42.640;23.370;2022-10-23T16:23:55;10.77;;;7.20;;
5878;SDS011;2965;42.640;23.370;2022-10-23T16:26:21;7.40;;;6.70;;
5878;SDS011;2965;42.640;23.370;2022-10-23T16:28:50;8.50;;;6.40;;
5878;SDS011;2965;42.640;23.370;2022-10-23T16:31:27;5.83;;;5.30;;
5878;SDS011;2965;42.640;23.370;2022-10-23T16:33:55;14.77;;;7.10;;
5878;SDS011;2965;42.640;23.370;2022-10-23T16:36:25;9.80;;;7.07;;
5878;SDS011;2965;42.640;23.370;2022-10-23T16:38:50;9.20;;;6.53;;
5878;SDS011;2965;42.640;23.370;2022-10-23T16:41:16;6.67;;;6.10;;
5878;SDS011;2965;42.640;23.370;2022-10-23T16:43:41;7.07;;;5.90;;
5878;SDS011;2965;42.640;23.370;2022-10-23T16:46:09;16.53;;;5.77;;
5878;SDS011;2965;42.640;23.370;2022-10-23T16:48:37;11.60;;;7.73;;
5878;SDS011;2965;42.640;23.370;2022-10-23T16:51:06;6.87;;;6.27;;
5878;SDS011;2965;42.640;23.370;2022-10-23T16:53:33;15.10;;;7.17;;
5878;SDS011;2965;42.640;23.370;2022-10-23T16:56:01;9.70;;;6.30;;
5878;SDS011;2965;42.640;23.370;2022-10-23T16:58:28;12.07;;;7.30;;
5878;SDS011;2965;42.640;23.370;2022-10-23T17:00:57;9.20;;;6.80;;
5878;SDS011;2965;42.640;23.370;2022-10-23T17:03:28;7.37;;;6.60;;
5878;SDS011;2965;42.640;23.370;2022-10-23T17:06:01;7.70;;;6.90;;
5878;SDS011;2965;42.640;23.370;2022-10-23T17:08:28;6.73;;;6.13;;
5878;SDS011;2965;42.640;23.370;2022-10-23T17:13:36;7.73;;;5.97;;
5878;SDS011;2965;42.640;23.370;2022-10-23T17:18:30;12.17;;;7.20;;
5878;SDS011;2965;42.640;23.370;2022-10-23T17:20:56;7.13;;;6.40;;
5878;SDS011;2965;42.640;23.370;2022-10-23T17:23:22;10.40;;;6.20;;
5878;SDS011;2965;42.640;23.370;2022-10-23T17:25:47;7.57;;;6.90;;
5878;SDS011;2965;42.640;23.370;2022-10-23T17:28:13;10.63;;;6.90;;
5878;SDS011;2965;42.640;23.370;2022-10-23T17:30:39;8.27;;;7.50;;
5878;SDS011;2965;42.640;23.370;2022-10-23T17:33:04;11.57;;;8.03;;
5878;SDS011;2965;42.640;23.370;2022-10-23T17:35:29;13.57;;;8.40;;
5878;SDS011;2965;42.640;23.370;2022-10-23T17:37:55;12.27;;;7.70;;
5878;SDS011;2965;42.640;23.370;2022-10-23T17:40:21;7.70;;;7.00;;
5878;SDS011;2965;42.640;23.370;2022-10-23T17:42:46;8.00;;;7.20;;
5878;SDS011;2965;42.640;23.370;2022-10-23T17:45:11;12.67;;;6.70;;
5878;SDS011;2965;42.640;23.370;2022-10-23T17:47:37;6.73;;;6.13;;
5878;SDS011;2965;42.640;23.370;2022-10-23T17:50:05;7.50;;;6.80;;
5878;SDS011;2965;42.640;23.370;2022-10-23T17:52:33;13.93;;;7.07;;
5878;SDS011;2965;42.640;23.370;2022-10-23T17:55:00;7.63;;;6.90;;
5878;SDS011;2965;42.640;23.370;2022-10-23T17:57:25;16.97;;;7.20;;
5878;SDS011;2965;42.640;23.370;2022-10-23T17:59:51;8.43;;;6.83;;
5878;SDS011;2965;42.640;23.370;2022-10-23T18:02:16;9.77;;;7.00;;
5878;SDS011;2965;42.640;23.370;2022-10-23T18:04:41;11.77;;;8.30;;
5878;SDS011;2965;42.640;23.370;2022-10-23T18:07:07;9.80;;;7.90;;
5878;SDS011;2965;42.640;23.370;2022-10-23T18:09:32;11.20;;;7.23;;
5878;SDS011;2965;42.640;23.370;2022-10-23T18:11:58;7.73;;;6.80;;
5878;SDS011;2965;42.640;23.370;2022-10-23T18:14:23;14.33;;;7.80;;
5878;SDS011;2965;42.640;23.370;2022-10-23T18:16:48;10.50;;;7.63;;
5878;SDS011;2965;42.640;23.370;2022-10-23T18:19:15;8.63;;;7.13;;
5878;SDS011;2965;42.640;23.370;2022-10-23T18:21:42;12.83;;;6.90;;
5878;SDS011;2965;42.640;23.370;2022-10-23T18:24:07;8.83;;;6.77;;
5878;SDS011;2965;42.640;23.370;2022-10-23T18:26:33;12.30;;;7.97;;
5878;SDS011;2965;42.640;23.370;2022-10-23T18:28:59;10.00;;;8.50;;
5878;SDS011;2965;42.640;23.370;2022-10-23T18:31:27;11.43;;;9.07;;
5878;SDS011;2965;42.640;23.370;2022-10-23T18:33:58;10.27;;;7.70;;
5878;SDS011;2965;42.640;23.370;2022-10-23T18:36:29;13.03;;;8.17;;
5878;SDS011;2965;42.640;23.370;2022-10-23T18:38:57;10.40;;;7.00;;
5878;SDS011;2965;42.640;23.370;2022-10-23T18:41:23;11.50;;;8.50;;
5878;SDS011;2965;42.640;23.370;2022-10-23T18:43:49;11.47;;;7.63;;
5878;SDS011;2965;42.640;23.370;2022-10-23T18:46:15;11.85;;;8.38;;
5878;SDS011;2965;42.640;23.370;2022-10-23T18:48:41;9.80;;;8.30;;
5878;SDS011;2965;42.640;23.370;2022-10-23T18:51:18;11.10;;;7.93;;
5878;SDS011;2965;42.640;23.370;2022-10-23T18:53:45;13.70;;;8.10;;
5878;SDS011;2965;42.640;23.370;2022-10-23T18:56:12;9.93;;;7.77;;
5878;SDS011;2965;42.640;23.370;2022-10-23T18:58:45;9.43;;;7.90;;
5878;SDS011;2965;42.640;23.370;2022-10-23T19:01:11;7.93;;;6.90;;
5878;SDS011;2965;42.640;23.370;2022-10-23T19:03:36;14.80;;;8.07;;
5878;SDS011;2965;42.640;23.370;2022-10-23T19:06:04;15.93;;;9.30;;
5878;SDS011;2965;42.640;23.370;2022-10-23T19:08:30;12.60;;;8.67;;
5878;SDS011;2965;42.640;23.370;2022-10-23T19:10:56;16.23;;;8.30;;
5878;SDS011;2965;42.640;23.370;2022-10-23T19:13:24;8.50;;;6.80;;
5878;SDS011;2965;42.640;23.370;2022-10-23T19:15:49;18.83;;;11.83;;
5878;SDS011;2965;42.640;23.370;2022-10-23T19:18:15;15.13;;;9.40;;
5878;SDS011;2965;42.640;23.370;2022-10-23T19:20:40;13.33;;;9.03;;
5878;SDS011;2965;42.640;23.370;2022-10-23T19:23:07;10.43;;;7.70;;
5878;SDS011;2965;42.640;23.370;2022-10-23T19:25:33;9.67;;;7.50;;
5878;SDS011;2965;42.640;23.370;2022-10-23T19:27:59;13.50;;;7.97;;
5878;SDS011;2965;42.640;23.370;2022-10-23T20:20:10;6.80;;;6.23;;
5878;SDS011;2965;42.640;23.370;2022-10-23T20:22:35;19.40;;;7.10;;
5878;SDS011;2965;42.640;23.370;2022-10-23T20:25:02;13.20;;;7.50;;
5878;SDS011;2965;42.640;23.370;2022-10-23T20:27:28;8.73;;;6.50;;
5878;SDS011;2965;42.640;23.370;2022-10-23T20:29:53;23.97;;;15.83;;
5878;SDS011;2965;42.640;23.370;2022-10-23T20:32:19;11.60;;;8.50;;
5878;SDS011;2965;42.640;23.370;2022-10-23T20:34:44;10.70;;;7.40;;
5878;SDS011;2965;42.640;23.370;2022-10-23T20:37:09;8.93;;;7.33;;
5878;SDS011;2965;42.640;23.370;2022-10-23T20:39:35;9.17;;;7.00;;
5878;SDS011;2965;42.640;23.370;2022-10-23T20:42:01;7.50;;;6.80;;
5878;SDS011;2965;42.640;23.370;2022-10-23T20:44:27;7.53;;;6.63;;
5878;SDS011;2965;42.640;23.370;2022-10-23T20:46:53;6.87;;;6.30;;
5878;SDS011;2965;42.640;23.370;2022-10-23T20:49:19;9.80;;;6.50;;
5878;SDS011;2965;42.640;23.370;2022-10-23T20:51:49;13.57;;;7.97;;
5878;SDS011;2965;42.640;23.370;2022-10-23T20:54:16;14.00;;;6.40;;
5878;SDS011;2965;42.640;23.370;2022-10-23T20:56:42;14.00;;;6.97;;
5878;SDS011;2965;42.640;23.370;2022-10-23T20:59:11;12.10;;;6.40;;
